Airport View

Enter AWOS ICAO identifier for current METAR.

ex. KFNL

KWDG 221745Z 03016G22KT 10SM FEW036 SCT200 30/14 A3016

22 Jul 2019 18:41

Frequency: 120.625

Phone: 580-237-1475

Other Area AWOS: KEND - KBKN - KGOK - KSWO

TAF KEND 221800Z 2218/2324 03015G25KT 9999 FEW045 QNH3011INS BECMG 2301/2302 04009KT 9999 FEW060 QNH3012INS TX31/2222Z TN18/2312Z